createdAt,value
2022-10-28T00:01:02.905Z,18.47
2022-10-28T00:04:11.282Z,18.46
2022-10-28T00:07:16.947Z,18.41
2022-10-28T00:10:22.412Z,18.38
2022-10-28T00:13:27.584Z,18.31
2022-10-28T00:16:33.946Z,18.25
2022-10-28T00:19:39.219Z,18.24
2022-10-28T00:22:49.253Z,18.20
2022-10-28T00:25:56.647Z,18.17
2022-10-28T00:29:04.244Z,18.18
2022-10-28T00:32:11.715Z,18.16
2022-10-28T00:35:17.163Z,18.12
2022-10-28T00:38:22.486Z,18.13
2022-10-28T00:41:29.008Z,18.12
2022-10-28T00:44:51.292Z,18.11
2022-10-28T00:47:58.414Z,18.07
2022-10-28T00:51:06.721Z,18.08
2022-10-28T00:54:13.155Z,18.12
2022-10-28T00:57:24.254Z,18.13
2022-10-28T01:00:31.916Z,18.11
2022-10-28T01:03:37.126Z,18.07
2022-10-28T01:06:44.117Z,18.07
2022-10-28T01:09:49.285Z,18.07
2022-10-28T01:13:00.866Z,18.09
2022-10-28T01:16:11.619Z,18.07
2022-10-28T01:19:33.233Z,18.04
2022-10-28T01:22:43.584Z,18.05
2022-10-28T01:26:00.399Z,18.05
2022-10-28T01:29:31.413Z,18.05
2022-10-28T01:32:42.408Z,17.99
2022-10-28T01:35:52.420Z,17.95
2022-10-28T01:39:02.228Z,17.94
2022-10-28T01:42:15.226Z,17.97
2022-10-28T01:45:24.146Z,17.99
2022-10-28T01:48:32.887Z,17.98
2022-10-28T01:51:39.839Z,18.00
2022-10-28T01:54:48.377Z,18.05
2022-10-28T01:57:55.864Z,18.06
2022-10-28T02:01:06.130Z,18.04
2022-10-28T02:04:12.065Z,18.07
2022-10-28T02:07:17.812Z,18.02
2022-10-28T02:10:27.882Z,17.93
2022-10-28T02:13:39.098Z,17.91
2022-10-28T02:16:49.162Z,17.90
2022-10-28T02:19:59.798Z,17.92
2022-10-28T02:23:11.246Z,17.90
2022-10-28T02:26:21.886Z,17.92
2022-10-28T02:29:31.860Z,17.92
2022-10-28T02:32:39.557Z,17.94
2022-10-28T02:35:47.507Z,17.98
2022-10-28T02:38:54.960Z,18.01
2022-10-28T02:42:02.679Z,17.97
2022-10-28T02:45:13.750Z,18.02
2022-10-28T02:48:20.493Z,18.04
2022-10-28T02:51:28.631Z,18.07
2022-10-28T02:54:35.867Z,18.07
2022-10-28T02:57:42.858Z,18.11
2022-10-28T03:00:49.964Z,18.09
2022-10-28T03:03:55.107Z,18.11
2022-10-28T03:07:00.445Z,18.14
2022-10-28T03:10:08.337Z,18.12
2022-10-28T03:13:13.561Z,18.18
2022-10-28T03:16:23.094Z,18.21
2022-10-28T03:19:28.307Z,18.24
2022-10-28T03:22:33.598Z,18.28
2022-10-28T03:25:38.879Z,18.33
2022-10-28T03:28:44.691Z,18.32
2022-10-28T03:31:52.967Z,18.31
2022-10-28T03:34:58.150Z,18.32
2022-10-28T03:38:03.157Z,18.28
2022-10-28T03:41:08.409Z,18.26
2022-10-28T03:44:16.715Z,18.23
2022-10-28T03:47:21.914Z,18.25
2022-10-28T03:50:26.820Z,18.30
2022-10-28T03:53:32.072Z,18.34
2022-10-28T03:56:39.530Z,18.32
2022-10-28T03:59:44.817Z,18.31
2022-10-28T04:02:52.839Z,18.35
2022-10-28T04:05:58.562Z,18.41
2022-10-28T04:09:04.042Z,18.41
2022-10-28T04:12:11.151Z,18.42
2022-10-28T04:15:16.611Z,18.42
2022-10-28T04:18:24.497Z,18.41
2022-10-28T04:21:30.253Z,18.34
2022-10-28T04:24:35.792Z,18.31
2022-10-28T04:27:41.285Z,18.25
2022-10-28T04:30:47.251Z,18.18
2022-10-28T04:33:52.487Z,18.13
2022-10-28T04:36:57.711Z,18.12
2022-10-28T04:40:03.020Z,18.13
2022-10-28T04:43:09.980Z,18.06
2022-10-28T04:46:15.722Z,18.02
2022-10-28T04:49:22.055Z,17.99
2022-10-28T04:52:30.270Z,17.94
2022-10-28T04:55:35.588Z,17.92
2022-10-28T04:58:41.351Z,17.94
2022-10-28T05:01:46.822Z,17.99
2022-10-28T05:04:52.089Z,18.00
2022-10-28T05:07:57.525Z,18.03
2022-10-28T05:11:02.855Z,18.00
2022-10-28T05:14:09.523Z,18.04
2022-10-28T05:17:14.817Z,18.05
2022-10-28T05:20:21.112Z,17.99
2022-10-28T05:23:30.835Z,17.95
2022-10-28T05:26:36.251Z,17.92
2022-10-28T05:29:41.618Z,17.89
2022-10-28T05:32:49.232Z,17.90
2022-10-28T05:35:57.084Z,17.91
2022-10-28T05:39:02.484Z,17.94
2022-10-28T05:42:07.737Z,17.95
2022-10-28T05:45:13.527Z,17.92
2022-10-28T05:48:18.826Z,17.90
2022-10-28T05:51:24.350Z,17.90
2022-10-28T05:54:29.540Z,17.89
2022-10-28T05:57:36.495Z,17.92
2022-10-28T06:00:41.930Z,17.97
2022-10-28T06:03:47.324Z,18.04
2022-10-28T06:06:55.308Z,18.09
2022-10-28T06:10:00.552Z,18.14
2022-10-28T06:13:04.577Z,18.15
2022-10-28T06:16:09.880Z,18.20
2022-10-28T06:19:15.093Z,18.23
2022-10-28T06:22:20.430Z,18.25
2022-10-28T06:25:26.391Z,18.27
2022-10-28T06:28:31.779Z,18.32
2022-10-28T06:31:39.637Z,18.33
2022-10-28T06:34:44.942Z,18.39
2022-10-28T06:37:55.350Z,18.41
2022-10-28T06:41:00.957Z,18.37
2022-10-28T06:44:06.458Z,18.37
2022-10-28T06:47:13.325Z,18.43
2022-10-28T06:50:18.689Z,18.49
2022-10-28T06:53:24.238Z,18.51
2022-10-28T06:56:29.468Z,18.60
2022-10-28T06:59:34.872Z,18.66
2022-10-28T07:02:42.839Z,18.60
2022-10-28T07:05:51.740Z,18.62
2022-10-28T07:08:57.072Z,18.74
2022-10-28T07:12:05.102Z,18.84
2022-10-28T07:15:12.442Z,18.97
2022-10-28T07:18:17.624Z,19.08
2022-10-28T07:21:28.527Z,19.17
2022-10-28T07:24:34.096Z,19.25
2022-10-28T07:27:39.279Z,19.35
2022-10-28T07:30:44.577Z,19.41
2022-10-28T07:33:53.801Z,19.49
2022-10-28T07:36:59.320Z,19.66
2022-10-28T07:40:04.938Z,19.74
2022-10-28T07:43:10.280Z,19.89
2022-10-28T07:46:16.167Z,20.01
2022-10-28T07:49:21.441Z,20.10
2022-10-28T07:52:26.654Z,20.15
2022-10-28T07:55:31.991Z,20.18
2022-10-28T07:58:37.849Z,20.18
2022-10-28T08:01:43.355Z,20.19
2022-10-28T08:04:51.028Z,20.27
2022-10-28T08:07:56.703Z,20.33
2022-10-28T08:11:09.240Z,20.38
2022-10-28T08:14:14.503Z,20.43
2022-10-28T08:17:22.646Z,20.46
2022-10-28T08:20:27.894Z,20.37
2022-10-28T08:23:33.532Z,20.31
2022-10-28T08:26:38.800Z,20.40
2022-10-28T08:29:43.915Z,20.54
2022-10-28T08:32:49.223Z,20.62
2022-10-28T08:35:54.638Z,20.70
2022-10-28T08:39:01.742Z,20.77
2022-10-28T08:42:18.544Z,20.84
2022-10-28T08:45:27.092Z,20.91
2022-10-28T08:48:34.802Z,20.98
2022-10-28T08:51:43.259Z,21.06
2022-10-28T08:54:52.350Z,21.19
2022-10-28T08:57:59.240Z,21.32
2022-10-28T09:01:06.371Z,21.44
2022-10-28T09:04:21.318Z,21.57
2022-10-28T09:07:26.866Z,21.24
2022-10-28T09:10:42.493Z,20.15
2022-10-28T09:13:55.606Z,19.30
2022-10-28T09:17:07.996Z,19.63
2022-10-28T09:20:18.471Z,20.58
2022-10-28T09:23:45.462Z,21.29
2022-10-28T09:26:53.879Z,21.65
2022-10-28T09:30:06.111Z,21.91
2022-10-28T09:33:17.938Z,22.12
2022-10-28T09:36:26.114Z,21.39
2022-10-28T09:39:33.380Z,20.45
2022-10-28T09:42:41.752Z,19.86
2022-10-28T09:45:49.256Z,20.40
2022-10-28T09:48:56.816Z,21.30
2022-10-28T09:52:05.607Z,21.87
2022-10-28T09:55:20.201Z,22.30
2022-10-28T09:58:25.681Z,22.64
2022-10-28T10:01:48.899Z,22.94
2022-10-28T10:04:54.455Z,22.59
2022-10-28T10:08:18.939Z,21.80
2022-10-28T10:11:28.767Z,22.26
2022-10-28T10:14:38.018Z,22.64
2022-10-28T10:18:02.295Z,21.96
2022-10-28T10:21:07.785Z,21.53
2022-10-28T10:24:30.764Z,22.42
2022-10-28T10:27:36.021Z,23.18
2022-10-28T10:30:46.694Z,23.44
2022-10-28T10:34:19.653Z,22.53
2022-10-28T10:37:25.055Z,22.28
2022-10-28T10:40:32.183Z,23.00
2022-10-28T10:43:37.858Z,23.27
2022-10-28T10:46:44.442Z,22.50
2022-10-28T10:49:55.151Z,21.73
2022-10-28T10:53:01.563Z,22.07
2022-10-28T10:56:26.569Z,23.13
2022-10-28T10:59:50.648Z,23.47
2022-10-28T11:02:56.250Z,22.68
2022-10-28T11:09:48.461Z,22.06
2022-10-28T11:12:55.420Z,22.33
2022-10-28T11:16:20.608Z,21.82
2022-10-28T11:19:29.688Z,22.30
2022-10-28T11:22:44.240Z,23.01
2022-10-28T11:25:51.071Z,22.66
2022-10-28T11:29:07.603Z,22.52
2022-10-28T11:33:01.400Z,23.72
2022-10-28T11:36:16.899Z,23.79
2022-10-28T11:39:26.463Z,23.26
2022-10-28T11:42:52.730Z,23.14
2022-10-28T11:46:04.752Z,24.14
2022-10-28T11:49:23.020Z,25.01
2022-10-28T11:52:35.271Z,24.72
2022-10-28T11:56:04.587Z,24.21
2022-10-28T11:59:45.387Z,24.03
2022-10-28T12:02:57.949Z,23.99
2022-10-28T12:06:11.299Z,23.75
2022-10-28T12:09:24.816Z,24.50
2022-10-28T12:12:33.105Z,25.00
2022-10-28T12:15:44.932Z,24.32
2022-10-28T12:18:53.999Z,23.72
2022-10-28T12:22:23.473Z,24.22
2022-10-28T12:25:30.033Z,25.13
2022-10-28T12:28:42.190Z,25.43
2022-10-28T12:32:06.756Z,24.65
2022-10-28T12:35:17.292Z,24.01
2022-10-28T12:38:26.662Z,23.58
2022-10-28T12:41:44.038Z,23.80
2022-10-28T12:44:52.948Z,25.05
2022-10-28T12:48:01.968Z,25.75
2022-10-28T12:51:13.609Z,25.18
2022-10-28T12:54:23.012Z,24.34
2022-10-28T12:57:30.483Z,23.74
2022-10-28T13:00:55.589Z,23.29
2022-10-28T13:04:19.487Z,22.93
2022-10-28T13:07:33.405Z,22.85
2022-10-28T13:10:42.309Z,23.87
2022-10-28T13:13:52.969Z,24.39
2022-10-28T13:17:15.816Z,23.71
2022-10-28T13:20:25.898Z,22.93
2022-10-28T13:23:36.385Z,22.41
2022-10-28T13:26:43.557Z,22.05
2022-10-28T13:29:52.553Z,21.90
2022-10-28T13:33:04.609Z,22.85
2022-10-28T13:36:11.759Z,24.05
2022-10-28T13:39:25.849Z,24.08
2022-10-28T13:42:54.023Z,23.44
2022-10-28T13:49:24.376Z,22.78
2022-10-28T13:52:48.023Z,22.54
2022-10-28T13:55:57.713Z,22.31
2022-10-28T13:59:05.296Z,22.46
2022-10-28T14:02:35.679Z,23.64
2022-10-28T14:05:55.771Z,24.65
2022-10-28T14:09:01.361Z,24.77
2022-10-28T14:12:26.886Z,23.98
2022-10-28T14:15:32.968Z,23.34
2022-10-28T14:18:43.838Z,22.85
2022-10-28T14:21:56.381Z,22.45
2022-10-28T14:25:24.698Z,22.12
2022-10-28T14:28:57.362Z,21.87
2022-10-28T14:32:22.734Z,22.72
2022-10-28T14:35:30.839Z,23.58
2022-10-28T14:38:50.876Z,24.02
2022-10-28T14:42:06.760Z,23.61
2022-10-28T14:45:21.705Z,22.70
2022-10-28T14:48:46.214Z,22.05
2022-10-28T14:51:52.484Z,21.59
2022-10-28T14:54:59.411Z,21.29
2022-10-28T14:58:21.108Z,21.04
2022-10-28T15:01:56.073Z,20.81
2022-10-28T15:05:03.194Z,20.61
2022-10-28T15:08:11.524Z,21.05
2022-10-28T15:11:35.034Z,22.26
2022-10-28T15:14:42.638Z,23.03
2022-10-28T15:17:48.080Z,23.56
2022-10-28T15:21:11.411Z,23.91
2022-10-28T15:24:16.831Z,23.96
2022-10-28T15:27:23.055Z,23.10
2022-10-28T15:30:28.523Z,22.06
2022-10-28T15:33:38.212Z,21.30
2022-10-28T15:37:01.129Z,20.70
2022-10-28T15:40:21.364Z,21.16
2022-10-28T15:43:30.035Z,22.09
2022-10-28T15:46:35.843Z,22.70
2022-10-28T15:49:41.734Z,23.08
2022-10-28T15:53:23.469Z,23.35
2022-10-28T15:56:28.978Z,23.53
2022-10-28T15:59:36.671Z,22.96
2022-10-28T16:02:43.093Z,21.87
2022-10-28T16:05:49.275Z,21.05
2022-10-28T16:09:19.266Z,20.35
2022-10-28T16:12:26.544Z,19.81
2022-10-28T16:15:52.417Z,19.31
2022-10-28T16:19:03.352Z,18.88
2022-10-28T16:22:27.394Z,18.48
2022-10-28T16:25:50.572Z,18.34
2022-10-28T16:29:13.369Z,19.70
2022-10-28T16:32:20.868Z,20.98
2022-10-28T16:35:26.684Z,21.69
2022-10-28T16:38:32.499Z,21.97
2022-10-28T16:41:56.096Z,22.13
2022-10-28T16:45:01.442Z,22.25
2022-10-28T16:48:25.436Z,22.41
2022-10-28T16:51:30.754Z,22.57
2022-10-28T16:54:36.134Z,22.66
2022-10-28T16:57:41.588Z,22.71
2022-10-28T17:01:05.144Z,22.82
2022-10-28T17:04:10.883Z,22.82
2022-10-28T17:07:17.872Z,22.07
2022-10-28T17:10:43.354Z,20.77
2022-10-28T17:13:49.072Z,19.88
2022-10-28T17:16:54.492Z,19.18
2022-10-28T17:19:59.993Z,18.86
2022-10-28T17:23:23.190Z,19.83
2022-10-28T17:26:28.628Z,20.75
2022-10-28T17:29:37.014Z,21.27
2022-10-28T17:32:43.899Z,21.51
2022-10-28T17:35:49.454Z,21.60
2022-10-28T17:39:17.738Z,21.73
2022-10-28T17:42:25.999Z,21.80
2022-10-28T17:45:31.239Z,21.84
2022-10-28T17:48:54.130Z,21.90
2022-10-28T17:51:59.799Z,21.96
2022-10-28T17:55:11.767Z,21.97
2022-10-28T17:58:17.016Z,22.00
2022-10-28T18:01:22.538Z,22.03
2022-10-28T18:04:28.193Z,22.10
2022-10-28T18:07:34.928Z,22.15
2022-10-28T18:10:40.292Z,22.17
2022-10-28T18:13:47.719Z,22.19
2022-10-28T18:16:52.979Z,22.29
2022-10-28T18:20:01.555Z,22.35
2022-10-28T18:23:06.841Z,22.43
2022-10-28T18:26:13.425Z,22.46
2022-10-28T18:29:18.875Z,22.28
2022-10-28T18:32:41.767Z,21.04
2022-10-28T18:35:48.136Z,19.87
2022-10-28T18:38:53.312Z,19.01
2022-10-28T18:42:19.379Z,18.27
2022-10-28T18:45:27.172Z,17.99
2022-10-28T18:48:32.719Z,18.90
2022-10-28T18:51:38.268Z,19.90
2022-10-28T18:54:46.591Z,20.59
2022-10-28T18:57:52.442Z,20.96
2022-10-28T19:01:15.981Z,21.26
2022-10-28T19:04:21.484Z,21.32
2022-10-28T19:07:26.716Z,21.29
2022-10-28T19:10:32.051Z,21.31
2022-10-28T19:13:38.413Z,21.38
2022-10-28T19:17:01.701Z,21.44
2022-10-28T19:20:07.790Z,21.41
2022-10-28T19:23:12.957Z,21.43
2022-10-28T19:26:18.857Z,21.48
2022-10-28T19:29:24.724Z,21.47
2022-10-28T19:32:30.051Z,21.48
2022-10-28T19:35:35.824Z,21.49
2022-10-28T19:38:41.075Z,21.51
2022-10-28T19:41:47.056Z,21.54
2022-10-28T19:44:52.280Z,21.55
2022-10-28T19:48:01.257Z,21.53
2022-10-28T19:51:24.827Z,20.54
2022-10-28T19:54:30.081Z,19.41
2022-10-28T19:57:35.368Z,18.54
2022-10-28T20:00:59.020Z,18.25
2022-10-28T20:04:04.521Z,19.11
2022-10-28T20:07:27.604Z,19.82
2022-10-28T20:10:33.047Z,20.29
2022-10-28T20:13:39.204Z,20.58
2022-10-28T20:17:06.400Z,20.81
2022-10-28T20:20:13.988Z,20.98
2022-10-28T20:23:19.241Z,21.21
2022-10-28T20:26:42.064Z,21.34
2022-10-28T20:29:47.316Z,21.00
2022-10-28T20:32:55.785Z,19.78
2022-10-28T20:36:01.420Z,18.68
2022-10-28T20:39:25.385Z,17.83
2022-10-28T20:42:30.812Z,17.50
2022-10-28T20:45:36.016Z,18.35
2022-10-28T20:48:41.363Z,19.23
2022-10-28T20:51:46.658Z,19.76
2022-10-28T20:55:10.377Z,20.11
2022-10-28T20:58:15.766Z,20.36
2022-10-28T21:01:21.992Z,20.50
2022-10-28T21:04:27.664Z,20.66
2022-10-28T21:07:50.470Z,20.80
2022-10-28T21:11:18.127Z,20.16
2022-10-28T21:14:23.479Z,18.95
2022-10-28T21:17:28.849Z,17.99
2022-10-28T21:20:35.782Z,17.27
2022-10-28T21:23:40.992Z,16.69
2022-10-28T21:26:48.434Z,16.41
2022-10-28T21:29:57.982Z,17.28
2022-10-28T21:33:20.936Z,18.17
2022-10-28T21:36:27.366Z,18.63
2022-10-28T21:39:32.687Z,18.94
2022-10-28T21:42:37.950Z,19.23
2022-10-28T21:45:43.179Z,19.52
2022-10-28T21:48:48.494Z,19.79
2022-10-28T21:52:12.899Z,20.01
2022-10-28T21:55:26.862Z,20.14
2022-10-28T21:58:39.254Z,20.26
2022-10-28T22:01:44.722Z,20.36
2022-10-28T22:05:08.119Z,20.20
2022-10-28T22:08:13.245Z,19.01
2022-10-28T22:11:19.874Z,17.89
2022-10-28T22:14:25.195Z,17.08
2022-10-28T22:17:30.644Z,16.43
2022-10-28T22:20:36.166Z,15.90
2022-10-28T22:23:41.632Z,15.56
2022-10-28T22:26:46.943Z,16.51
2022-10-28T22:29:52.735Z,17.68
2022-10-28T22:32:58.117Z,18.25
2022-10-28T22:36:05.594Z,18.64
2022-10-28T22:39:11.048Z,18.97
2022-10-28T22:42:16.407Z,19.28
2022-10-28T22:45:21.652Z,19.50
2022-10-28T22:48:27.472Z,19.67
2022-10-28T22:51:32.886Z,19.80
2022-10-28T22:54:38.074Z,19.93
2022-10-28T22:57:43.449Z,20.02
2022-10-28T23:00:49.148Z,20.04
2022-10-28T23:03:57.631Z,19.10
2022-10-28T23:07:02.830Z,17.89
2022-10-28T23:10:08.887Z,17.00
2022-10-28T23:13:21.473Z,16.39
2022-10-28T23:16:26.814Z,17.10
2022-10-28T23:19:32.113Z,18.16
2022-10-28T23:22:57.445Z,18.66
2022-10-28T23:26:03.111Z,18.97
2022-10-28T23:29:26.189Z,19.29
2022-10-28T23:32:32.161Z,19.49
2022-10-28T23:35:58.885Z,19.66
2022-10-28T23:39:04.133Z,19.80
2022-10-28T23:42:10.641Z,19.93
2022-10-28T23:45:33.360Z,20.07
2022-10-28T23:48:56.229Z,19.36
2022-10-28T23:52:01.472Z,18.18
2022-10-28T23:55:07.381Z,17.32
2022-10-28T23:58:12.715Z,16.88
